KDLH/DLH METAR and TAF weather

Enter ICAO airport designator
Station Type Date Time Source
KDLH METAR 2020/07/04 07:55 UTC NOAA

KDLH 040755Z 00000KT 10SM MIFG CLR 17/14 A3008 RMK AO2 SLP183 T01670144 $


Station Type Date Time Source
KDLH Decoded METAR 2020/07/04 07:55 UTC NOAA

Duluth, Duluth International Airport, MN, United States (KDLH) 46-50-34N 092-13-34W 435M
Jul 04, 2020 - 03:55 AM EDT / 2020.07.04 0755 UTC
Wind: Calm:0
Visibility: 10 mile(s):0
Sky conditions: clear
Weather: shallow fog
Temperature: 62.1 F (16.7 C)
Dew Point: 57.9 F (14.4 C)
Relative Humidity: 86%
Pressure (altimeter): 30.08 in. Hg (1018 hPa)
ob: KDLH 040755Z 00000KT 10SM MIFG CLR 17/14 A3008 RMK AO2 SLP183 T01670144
cycle: 8

Station Type Date Time Source
KDLH TAF 2020/07/04 07:30 UTC NOAA

TAF
AMD KDLH 040727Z 0407/0506 00000KT P6SM SKC
TEMPO 0407/0409 2SM BR
FM040900 00000KT 2SM BR FEW008
FM041200 VRB02KT P6SM FEW070

Example: see airport list